createdAt,value
2018-01-21T00:00:52.819Z,1.90
2018-01-21T00:03:20.239Z,2.00
2018-01-21T00:05:47.667Z,2.00
2018-01-21T00:08:15.176Z,2.00
2018-01-21T00:10:42.599Z,2.00
2018-01-21T00:13:10.980Z,2.00
2018-01-21T00:15:38.516Z,2.00
2018-01-21T00:18:05.932Z,2.00
2018-01-21T00:20:33.356Z,2.00
2018-01-21T00:23:01.148Z,2.00
2018-01-21T00:25:28.592Z,2.00
2018-01-21T00:27:56.068Z,2.00
2018-01-21T00:30:24.303Z,2.00
2018-01-21T00:32:51.824Z,2.00
2018-01-21T00:35:19.239Z,2.00
2018-01-21T00:37:48.195Z,2.00
2018-01-21T00:40:15.663Z,2.00
2018-01-21T00:42:43.141Z,2.00
2018-01-21T00:45:10.571Z,2.00
2018-01-21T00:47:37.987Z,2.00
2018-01-21T00:50:05.448Z,2.10
2018-01-21T00:52:32.870Z,2.10
2018-01-21T00:55:00.292Z,2.10
2018-01-21T00:57:27.715Z,2.10
2018-01-21T00:59:55.940Z,2.20
2018-01-21T01:02:23.360Z,2.20
2018-01-21T01:04:50.879Z,2.30
2018-01-21T01:07:18.299Z,2.40
2018-01-21T01:09:45.719Z,2.50
2018-01-21T01:12:13.186Z,2.60
2018-01-21T01:14:40.600Z,2.70
2018-01-21T01:17:08.023Z,2.80
2018-01-21T01:19:35.435Z,2.90
2018-01-21T01:22:02.851Z,2.90
2018-01-21T01:24:30.328Z,3.00
2018-01-21T01:26:57.756Z,3.00
2018-01-21T01:29:25.189Z,3.10
2018-01-21T01:31:52.635Z,3.10
2018-01-21T01:34:20.055Z,3.10
2018-01-21T01:36:47.571Z,3.20
2018-01-21T01:39:15.043Z,3.20
2018-01-21T01:41:42.454Z,3.20
2018-01-21T01:44:09.883Z,3.20
2018-01-21T01:46:37.291Z,3.20
2018-01-21T01:49:04.711Z,3.10
2018-01-21T01:51:32.123Z,3.10
2018-01-21T01:53:59.548Z,3.10
2018-01-21T01:56:26.963Z,3.00
2018-01-21T01:58:54.496Z,2.90
2018-01-21T02:01:21.906Z,2.90
2018-01-21T02:03:50.103Z,2.90
2018-01-21T02:06:17.523Z,2.90
2018-01-21T02:08:44.951Z,2.90
2018-01-21T02:11:12.459Z,2.80
2018-01-21T02:13:39.883Z,2.80
2018-01-21T02:16:07.299Z,2.80
2018-01-21T02:18:34.707Z,2.80
2018-01-21T02:21:02.346Z,2.80
2018-01-21T02:23:30.507Z,2.80
2018-01-21T02:25:58.713Z,2.90
2018-01-21T02:28:26.138Z,2.80
2018-01-21T02:30:53.568Z,2.90
2018-01-21T02:33:20.987Z,2.90
2018-01-21T02:35:49.179Z,3.00
2018-01-21T02:38:17.431Z,3.00
2018-01-21T02:40:44.821Z,3.00
2018-01-21T02:43:13.248Z,3.10
2018-01-21T02:45:40.728Z,3.10
2018-01-21T02:48:08.138Z,3.20
2018-01-21T02:50:35.560Z,3.30
2018-01-21T02:53:03.887Z,3.30
2018-01-21T02:55:31.328Z,3.30
2018-01-21T02:57:58.747Z,3.30
2018-01-21T03:00:26.255Z,3.30
2018-01-21T03:02:53.727Z,3.30
2018-01-21T03:05:21.150Z,3.40
2018-01-21T03:07:48.573Z,3.40
2018-01-21T03:10:16.040Z,3.40
2018-01-21T03:12:43.460Z,3.50
2018-01-21T03:15:10.888Z,3.50
2018-01-21T03:17:38.342Z,3.50
2018-01-21T03:20:05.814Z,3.50
2018-01-21T03:22:33.227Z,3.40
2018-01-21T03:25:00.858Z,3.40
2018-01-21T03:27:29.144Z,3.30
2018-01-21T03:29:56.563Z,3.30
2018-01-21T03:32:24.079Z,3.40
2018-01-21T03:34:51.500Z,3.40
2018-01-21T03:37:19.027Z,3.40
2018-01-21T03:39:46.439Z,3.40
2018-01-21T03:42:13.871Z,3.40
2018-01-21T03:44:41.287Z,3.40
2018-01-21T03:47:08.814Z,3.30
2018-01-21T03:49:36.268Z,3.40
2018-01-21T03:52:03.695Z,3.40
2018-01-21T03:54:31.111Z,3.30
2018-01-21T03:56:58.535Z,3.40
2018-01-21T03:59:26.044Z,3.30
2018-01-21T04:01:53.468Z,3.30
2018-01-21T04:04:20.996Z,3.30
2018-01-21T04:06:48.455Z,3.30
2018-01-21T04:09:15.926Z,3.30
2018-01-21T04:11:43.395Z,3.30
2018-01-21T04:14:10.815Z,3.30
2018-01-21T04:16:38.243Z,3.30
2018-01-21T04:19:05.703Z,3.30
2018-01-21T04:21:33.172Z,3.30
2018-01-21T04:24:00.596Z,3.20
2018-01-21T04:26:27.998Z,3.30
2018-01-21T04:28:55.423Z,3.30
2018-01-21T04:31:22.838Z,3.30
2018-01-21T04:33:50.263Z,3.30
2018-01-21T04:36:17.680Z,3.30
2018-01-21T04:38:45.107Z,3.30
2018-01-21T04:41:12.629Z,3.30
2018-01-21T04:43:40.044Z,3.30
2018-01-21T04:46:07.454Z,3.40
2018-01-21T04:48:34.880Z,3.40
2018-01-21T04:51:02.408Z,3.40
2018-01-21T04:53:29.826Z,3.40
2018-01-21T04:55:57.344Z,3.40
2018-01-21T04:58:24.764Z,3.40
2018-01-21T05:00:52.284Z,3.40
2018-01-21T05:03:20.611Z,3.40
2018-01-21T05:05:48.033Z,3.40
2018-01-21T05:08:15.443Z,3.40
2018-01-21T05:10:42.876Z,3.40
2018-01-21T05:13:11.202Z,3.40
2018-01-21T05:15:38.622Z,3.40
2018-01-21T05:18:06.116Z,3.40
2018-01-21T05:20:33.579Z,3.40
2018-01-21T05:23:01.048Z,3.50
2018-01-21T05:25:28.515Z,3.50
2018-01-21T05:27:55.992Z,3.50
2018-01-21T05:30:23.407Z,3.50
2018-01-21T05:32:50.918Z,3.50
2018-01-21T05:35:18.395Z,3.50
2018-01-21T05:37:45.810Z,3.50
2018-01-21T05:40:13.232Z,3.50
2018-01-21T05:42:40.646Z,3.50
2018-01-21T05:45:08.888Z,3.40
2018-01-21T05:47:36.303Z,3.40
2018-01-21T05:50:03.723Z,3.40
2018-01-21T05:52:31.139Z,3.40
2018-01-21T05:54:59.326Z,3.50
2018-01-21T05:57:26.749Z,3.50
2018-01-21T05:59:54.216Z,3.50
2018-01-21T06:02:21.628Z,3.50
2018-01-21T06:04:49.047Z,3.60
2018-01-21T06:07:16.528Z,3.60
2018-01-21T06:09:43.963Z,3.60
2018-01-21T06:12:12.155Z,3.60
2018-01-21T06:14:40.327Z,3.50
2018-01-21T06:17:07.746Z,3.50
2018-01-21T06:19:35.160Z,3.50
2018-01-21T06:22:02.612Z,3.50
2018-01-21T06:24:30.051Z,3.50
2018-01-21T06:26:57.512Z,3.50
2018-01-21T06:29:24.983Z,3.50
2018-01-21T06:31:52.403Z,3.50
2018-01-21T06:34:19.935Z,3.60
2018-01-21T06:36:47.355Z,3.60
2018-01-21T06:39:14.771Z,3.60
2018-01-21T06:41:42.199Z,3.60
2018-01-21T06:44:10.500Z,3.70
2018-01-21T06:46:38.687Z,3.60
2018-01-21T06:49:06.867Z,3.70
2018-01-21T06:51:35.053Z,3.60
2018-01-21T06:54:03.269Z,3.60
2018-01-21T06:56:30.697Z,3.60
2018-01-21T06:58:58.210Z,3.70
2018-01-21T07:01:25.685Z,3.70
2018-01-21T07:03:53.152Z,3.70
2018-01-21T07:06:20.615Z,3.70
2018-01-21T07:08:48.090Z,3.70
2018-01-21T07:11:15.523Z,3.70
2018-01-21T07:13:43.739Z,3.80
2018-01-21T07:16:11.151Z,3.70
2018-01-21T07:18:38.575Z,3.80
2018-01-21T07:21:05.996Z,3.80
2018-01-21T07:23:33.519Z,3.80
2018-01-21T07:26:00.937Z,3.80
2018-01-21T07:28:28.440Z,3.80
2018-01-21T07:30:56.652Z,3.70
2018-01-21T07:33:24.115Z,3.70
2018-01-21T07:35:51.588Z,3.60
2018-01-21T07:38:19.011Z,3.60
2018-01-21T07:40:46.524Z,3.50
2018-01-21T07:43:14.855Z,3.40
2018-01-21T07:45:42.276Z,3.30
2018-01-21T07:48:09.755Z,3.20
2018-01-21T07:50:37.163Z,3.20
2018-01-21T07:53:04.700Z,3.20
2018-01-21T07:55:32.111Z,3.20
2018-01-21T07:57:59.639Z,3.20
2018-01-21T08:00:27.052Z,3.20
2018-01-21T08:02:55.294Z,3.30
2018-01-21T08:05:23.163Z,3.30
2018-01-21T08:07:50.643Z,3.30
2018-01-21T08:10:18.151Z,3.30
2018-01-21T08:12:45.563Z,3.30
2018-01-21T08:15:13.302Z,3.30
2018-01-21T08:17:40.722Z,3.20
2018-01-21T08:20:08.191Z,3.20
2018-01-21T08:22:35.611Z,3.20
2018-01-21T08:25:03.140Z,3.10
2018-01-21T08:27:30.553Z,3.10
2018-01-21T08:29:58.075Z,3.00
2018-01-21T08:32:25.491Z,2.90
2018-01-21T08:34:58.707Z,2.80
2018-01-21T08:37:31.799Z,2.80
2018-01-21T08:40:04.931Z,2.70
2018-01-21T08:42:33.096Z,2.60
2018-01-21T08:45:00.608Z,2.60
2018-01-21T08:47:28.024Z,2.60
2018-01-21T08:49:56.955Z,2.50
2018-01-21T08:52:25.131Z,2.60
2018-01-21T08:54:52.552Z,2.60
2018-01-21T08:57:19.973Z,2.60
2018-01-21T08:59:48.163Z,2.60
2018-01-21T09:02:16.355Z,2.60
2018-01-21T09:04:44.571Z,2.60
2018-01-21T09:07:12.002Z,2.70
2018-01-21T09:09:39.414Z,2.70
2018-01-21T09:12:06.871Z,2.70
2018-01-21T09:14:35.028Z,2.80
2018-01-21T09:17:03.219Z,2.80
2018-01-21T09:19:31.436Z,2.90
2018-01-21T09:21:59.008Z,2.90
2018-01-21T09:24:26.420Z,3.60
2018-01-21T09:26:53.949Z,4.40
2018-01-21T09:29:21.357Z,5.00
2018-01-21T09:31:48.814Z,5.40
2018-01-21T09:34:16.255Z,5.70
2018-01-21T09:36:43.676Z,5.80
2018-01-21T09:39:11.087Z,5.90
2018-01-21T09:41:38.507Z,5.90
2018-01-21T09:44:05.927Z,5.90
2018-01-21T09:46:33.351Z,5.80
2018-01-21T09:49:00.771Z,5.80
2018-01-21T09:51:28.236Z,5.80
2018-01-21T09:53:55.656Z,5.80
2018-01-21T09:56:23.171Z,5.80
2018-01-21T09:58:50.583Z,5.80
2018-01-21T10:01:18.111Z,5.80
2018-01-21T10:03:45.583Z,5.90
2018-01-21T10:06:13.003Z,5.90
2018-01-21T10:08:40.519Z,6.00
2018-01-21T10:11:07.991Z,6.00
2018-01-21T10:13:35.414Z,6.10
2018-01-21T10:16:02.820Z,6.10
2018-01-21T10:18:30.304Z,6.10
2018-01-21T10:20:57.768Z,6.10
2018-01-21T10:23:25.192Z,6.10
2018-01-21T10:25:52.612Z,6.10
2018-01-21T10:28:20.032Z,6.10
2018-01-21T10:30:47.548Z,6.00
2018-01-21T10:33:15.983Z,6.00
2018-01-21T10:35:43.509Z,6.00
2018-01-21T10:38:10.983Z,6.00
2018-01-21T10:40:38.448Z,6.00
2018-01-21T10:43:05.871Z,6.00
2018-01-21T10:45:34.052Z,6.00
2018-01-21T10:48:01.572Z,5.90
2018-01-21T10:50:29.045Z,5.90
2018-01-21T10:52:56.464Z,5.90
2018-01-21T10:55:24.087Z,5.90
2018-01-21T10:57:52.253Z,5.90
2018-01-21T11:00:20.462Z,5.90
2018-01-21T11:02:47.879Z,5.80
2018-01-21T11:05:15.295Z,5.90
2018-01-21T11:07:42.772Z,5.90
2018-01-21T11:10:10.244Z,5.80
2018-01-21T11:12:37.655Z,5.80
2018-01-21T11:15:05.067Z,5.80
2018-01-21T11:17:32.547Z,5.80
2018-01-21T11:19:59.967Z,5.80
2018-01-21T11:22:27.381Z,5.80
2018-01-21T11:24:54.849Z,5.80
2018-01-21T11:27:22.320Z,5.80
2018-01-21T11:29:49.796Z,5.80
2018-01-21T11:32:17.259Z,5.80
2018-01-21T11:34:44.675Z,5.80
2018-01-21T11:37:12.216Z,5.80
2018-01-21T11:39:39.640Z,5.80
2018-01-21T11:42:07.857Z,5.80
2018-01-21T11:44:35.284Z,5.80
2018-01-21T11:47:02.701Z,5.80
2018-01-21T11:49:30.168Z,5.80
2018-01-21T11:51:57.579Z,5.80
2018-01-21T11:54:25.101Z,5.80
2018-01-21T11:56:52.572Z,5.80
2018-01-21T11:59:20.055Z,5.80
2018-01-21T12:01:47.471Z,5.80
2018-01-21T12:04:14.901Z,5.80
2018-01-21T12:06:42.308Z,5.80
2018-01-21T12:09:09.730Z,5.80
2018-01-21T12:11:37.191Z,5.80
2018-01-21T12:14:04.656Z,5.80
2018-01-21T12:16:32.084Z,5.80
2018-01-21T12:18:59.505Z,5.80
2018-01-21T12:21:26.941Z,5.80
2018-01-21T12:23:55.149Z,5.90
2018-01-21T12:26:22.574Z,5.80
2018-01-21T12:28:49.984Z,5.90
2018-01-21T12:31:17.406Z,5.90
2018-01-21T12:33:44.816Z,5.90
2018-01-21T12:36:12.235Z,6.00
2018-01-21T12:38:39.662Z,6.00
2018-01-21T12:41:07.131Z,6.00
2018-01-21T12:43:34.559Z,6.00
2018-01-21T12:46:02.073Z,6.00
2018-01-21T12:48:29.553Z,6.00
2018-01-21T12:50:57.008Z,6.00
2018-01-21T12:53:24.419Z,6.00
2018-01-21T12:55:51.846Z,6.00
2018-01-21T12:58:19.322Z,6.00
2018-01-21T13:00:46.763Z,6.10
2018-01-21T13:03:14.952Z,6.10
2018-01-21T13:05:43.156Z,6.10
2018-01-21T13:08:10.627Z,6.10
2018-01-21T13:10:38.062Z,6.10
2018-01-21T13:13:05.568Z,6.10
2018-01-21T13:15:33.288Z,6.10
2018-01-21T13:18:00.744Z,6.10
2018-01-21T13:20:28.156Z,6.10
2018-01-21T13:22:56.343Z,6.10
2018-01-21T13:25:24.523Z,6.10
2018-01-21T13:27:52.748Z,6.10
2018-01-21T13:30:20.172Z,6.10
2018-01-21T13:32:47.604Z,6.10
2018-01-21T13:35:15.047Z,6.10
2018-01-21T13:37:42.516Z,6.10
2018-01-21T13:40:09.990Z,6.10
2018-01-21T13:42:37.412Z,6.10
2018-01-21T13:45:04.933Z,6.00
2018-01-21T13:47:33.105Z,6.00
2018-01-21T13:50:01.297Z,6.00
2018-01-21T13:52:28.711Z,6.00
2018-01-21T13:54:56.124Z,6.00
2018-01-21T13:57:23.548Z,5.90
2018-01-21T13:59:50.977Z,5.90
2018-01-21T14:02:18.401Z,5.90
2018-01-21T14:04:45.917Z,5.90
2018-01-21T14:07:13.384Z,5.90
2018-01-21T14:09:40.864Z,5.90
2018-01-21T14:12:08.327Z,5.90
2018-01-21T14:14:35.749Z,5.90
2018-01-21T14:17:03.172Z,5.90
2018-01-21T14:19:30.636Z,5.80
2018-01-21T14:21:58.047Z,5.80
2018-01-21T14:24:25.468Z,5.80
2018-01-21T14:26:52.944Z,5.80
2018-01-21T14:29:20.359Z,5.80
2018-01-21T14:31:47.780Z,5.80
2018-01-21T14:34:15.247Z,5.80
2018-01-21T14:36:42.716Z,5.80
2018-01-21T14:39:10.188Z,5.80
2018-01-21T14:41:38.364Z,5.90
2018-01-21T14:44:05.788Z,5.80
2018-01-21T14:46:33.206Z,5.80
2018-01-21T14:49:00.685Z,5.90
2018-01-21T14:51:28.252Z,5.90
2018-01-21T14:53:55.672Z,5.90
2018-01-21T14:56:23.088Z,5.90
2018-01-21T14:58:50.507Z,5.90
2018-01-21T15:01:17.925Z,5.90
2018-01-21T15:03:45.408Z,5.90
2018-01-21T15:06:12.819Z,5.90
2018-01-21T15:08:40.239Z,5.90
2018-01-21T15:11:07.656Z,5.90
2018-01-21T15:13:35.112Z,5.90
2018-01-21T15:16:02.590Z,5.90
2018-01-21T15:18:30.016Z,5.90
2018-01-21T15:20:57.439Z,5.90
2018-01-21T15:23:24.853Z,5.90
2018-01-21T15:25:52.360Z,5.90
2018-01-21T15:28:19.790Z,5.90
2018-01-21T15:30:47.207Z,5.90
2018-01-21T15:33:14.624Z,5.90
2018-01-21T15:35:41.712Z,5.90
2018-01-21T15:38:08.684Z,5.90
2018-01-21T15:40:35.658Z,6.00
2018-01-21T15:43:03.399Z,5.80
2018-01-21T15:45:30.471Z,5.80
2018-01-21T15:47:57.478Z,5.70
2018-01-21T15:50:25.228Z,5.50
2018-01-21T15:52:53.799Z,5.50
2018-01-21T15:55:20.806Z,5.40
2018-01-21T15:57:48.644Z,5.30
2018-01-21T16:00:15.695Z,5.30
2018-01-21T16:02:42.658Z,5.30
2018-01-21T16:05:09.711Z,5.20
2018-01-21T16:07:36.683Z,5.20
2018-01-21T16:10:03.667Z,5.20
2018-01-21T16:12:30.641Z,5.10
2018-01-21T16:14:58.463Z,5.00
2018-01-21T16:17:25.444Z,5.00
2018-01-21T16:19:52.415Z,5.00
2018-01-21T16:22:20.258Z,4.90
2018-01-21T16:24:47.240Z,4.90
2018-01-21T16:27:14.270Z,4.90
2018-01-21T16:29:41.335Z,4.90
2018-01-21T16:32:08.310Z,4.90
2018-01-21T16:34:35.350Z,4.90
2018-01-21T16:37:05.725Z,4.90
2018-01-21T16:39:32.782Z,4.80
2018-01-21T16:41:59.815Z,4.80
2018-01-21T16:44:26.795Z,4.80
2018-01-21T16:46:53.823Z,4.70
2018-01-21T16:49:20.882Z,4.70
2018-01-21T16:51:47.946Z,4.70
2018-01-21T16:54:14.914Z,4.70
2018-01-21T16:56:41.886Z,4.60
2018-01-21T16:59:08.854Z,4.60
2018-01-21T17:01:35.831Z,4.60
2018-01-21T17:04:03.566Z,4.70
2018-01-21T17:06:30.558Z,4.60
2018-01-21T17:08:58.286Z,4.60
2018-01-21T17:11:25.278Z,4.60
2018-01-21T17:13:52.251Z,4.60
2018-01-21T17:16:19.215Z,4.60
2018-01-21T17:18:46.963Z,4.60
2018-01-21T17:21:13.935Z,4.50
2018-01-21T17:23:40.943Z,4.50
2018-01-21T17:26:07.915Z,4.50
2018-01-21T17:28:34.978Z,4.40
2018-01-21T17:31:02.024Z,4.50
2018-01-21T17:33:28.994Z,4.40
2018-01-21T17:35:55.975Z,4.40
2018-01-21T17:38:23.015Z,4.40
2018-01-21T17:40:50.079Z,4.30
2018-01-21T17:43:17.043Z,4.30
2018-01-21T17:45:44.086Z,4.20
2018-01-21T17:48:11.069Z,4.20
2018-01-21T17:50:38.039Z,4.10
2018-01-21T17:53:05.015Z,4.10
2018-01-21T17:55:32.755Z,4.00
2018-01-21T17:57:59.808Z,4.00
2018-01-21T18:00:26.774Z,4.00
2018-01-21T18:02:54.527Z,3.80
2018-01-21T18:05:21.521Z,3.80
2018-01-21T18:07:48.559Z,3.80
2018-01-21T18:10:15.522Z,3.70
2018-01-21T18:12:42.495Z,3.60
2018-01-21T18:15:09.535Z,3.60
2018-01-21T18:17:36.502Z,3.50
2018-01-21T18:20:03.480Z,3.50
2018-01-21T18:22:30.455Z,3.40
2018-01-21T18:24:57.466Z,3.40
2018-01-21T18:27:24.451Z,3.40
2018-01-21T18:29:51.428Z,3.30
2018-01-21T18:32:18.447Z,3.30
2018-01-21T18:34:45.418Z,3.20
2018-01-21T18:37:12.458Z,3.20
2018-01-21T18:39:39.514Z,3.10
2018-01-21T18:42:06.486Z,3.10
2018-01-21T18:44:33.539Z,3.10
2018-01-21T18:47:00.515Z,3.00
2018-01-21T18:49:27.490Z,3.00
2018-01-21T18:51:54.535Z,3.00
2018-01-21T18:54:21.492Z,2.90
2018-01-21T18:56:48.530Z,2.90
2018-01-21T18:59:15.616Z,2.90
2018-01-21T19:01:42.650Z,2.90
2018-01-21T19:04:09.710Z,2.90
2018-01-21T19:06:36.771Z,2.80
2018-01-21T19:09:03.744Z,2.80
2018-01-21T19:11:30.795Z,2.80
2018-01-21T19:13:57.790Z,2.80
2018-01-21T19:16:24.768Z,2.80
2018-01-21T19:18:52.509Z,2.70
2018-01-21T19:21:19.557Z,2.70
2018-01-21T19:23:46.519Z,2.70
2018-01-21T19:26:13.580Z,2.70
2018-01-21T19:28:40.610Z,2.70
2018-01-21T19:31:07.574Z,2.70
2018-01-21T19:33:34.615Z,2.70
2018-01-21T19:36:01.603Z,2.70
2018-01-21T19:38:28.715Z,2.60
2018-01-21T19:40:57.271Z,2.60
2018-01-21T19:43:40.126Z,2.60
2018-01-21T19:46:07.149Z,2.60
2018-01-21T19:48:34.255Z,2.60
2018-01-21T19:51:02.066Z,2.50
2018-01-21T19:53:29.867Z,2.50
2018-01-21T19:55:56.915Z,2.50
2018-01-21T19:58:23.879Z,2.50
2018-01-21T20:00:50.951Z,2.50
2018-01-21T20:03:18.008Z,2.50
2018-01-21T20:05:45.106Z,2.50
2018-01-21T20:08:12.101Z,2.40
2018-01-21T20:10:39.871Z,2.40
2018-01-21T20:13:07.610Z,2.40
2018-01-21T20:15:35.177Z,2.40
2018-01-21T20:18:03.019Z,2.40
2018-01-21T20:20:29.986Z,2.40
2018-01-21T20:22:57.090Z,2.40
2018-01-21T20:25:24.943Z,2.40
2018-01-21T20:27:51.984Z,2.40
2018-01-21T20:30:19.043Z,2.40
2018-01-21T20:32:46.018Z,2.40
2018-01-21T20:35:12.991Z,2.40
2018-01-21T20:37:40.023Z,2.40
2018-01-21T20:40:07.005Z,2.50
2018-01-21T20:42:33.983Z,2.50
2018-01-21T20:45:01.727Z,2.50
2018-01-21T20:47:28.763Z,2.50
2018-01-21T20:49:55.726Z,2.50
2018-01-21T20:52:28.595Z,2.50
2018-01-21T20:54:55.571Z,2.50
2018-01-21T20:57:22.643Z,2.60
2018-01-21T20:59:49.607Z,2.60
2018-01-21T21:02:16.654Z,2.60
2018-01-21T21:04:43.714Z,2.60
2018-01-21T21:07:10.790Z,2.60
2018-01-21T21:09:37.772Z,2.60
2018-01-21T21:12:04.747Z,2.60
2018-01-21T21:14:32.484Z,2.70
2018-01-21T21:16:59.459Z,2.70
2018-01-21T21:19:26.435Z,2.70
2018-01-21T21:21:53.408Z,2.70
2018-01-21T21:24:21.179Z,2.80
2018-01-21T21:26:49.009Z,2.80
2018-01-21T21:29:16.059Z,2.80
2018-01-21T21:31:43.031Z,2.80
2018-01-21T21:34:10.019Z,2.80
2018-01-21T21:36:36.994Z,2.90
2018-01-21T21:39:04.820Z,2.90
2018-01-21T21:41:31.787Z,2.90
2018-01-21T21:43:58.830Z,2.90
2018-01-21T21:46:25.803Z,2.90
2018-01-21T21:48:52.855Z,3.00
2018-01-21T21:51:19.915Z,2.90
2018-01-21T21:53:46.894Z,2.90
2018-01-21T22:42:05.514Z,2.90
2018-01-21T22:44:32.496Z,2.90
2018-01-21T22:47:00.310Z,2.80
2018-01-21T22:49:27.283Z,2.80
2018-01-21T22:51:54.327Z,2.80
2018-01-21T22:54:21.382Z,2.80
2018-01-21T22:56:48.366Z,2.80
2018-01-21T22:59:15.344Z,2.80
2018-01-21T23:01:42.323Z,2.80
2018-01-21T23:04:10.060Z,2.90
2018-01-21T23:06:37.110Z,2.90
2018-01-21T23:09:04.159Z,2.90
2018-01-21T23:11:31.218Z,2.90
2018-01-21T23:13:58.375Z,3.00
2018-01-21T23:16:25.359Z,3.00
2018-01-21T23:18:52.350Z,3.00
2018-01-21T23:21:20.171Z,3.00
2018-01-21T23:23:47.239Z,2.90
2018-01-21T23:26:14.217Z,3.00
2018-01-21T23:28:41.266Z,3.00
2018-01-21T23:31:08.310Z,3.00
2018-01-21T23:33:35.285Z,3.00
2018-01-21T23:36:02.272Z,3.00
2018-01-21T23:38:29.260Z,3.00
2018-01-21T23:40:57.058Z,3.00
2018-01-21T23:43:24.127Z,3.00
2018-01-21T23:45:51.094Z,3.00
2018-01-21T23:48:18.071Z,3.00
2018-01-21T23:50:45.104Z,3.00
2018-01-21T23:53:13.107Z,3.00
2018-01-21T23:55:40.075Z,3.00
2018-01-21T23:58:07.051Z,3.00
